createdAt,value
2023-04-17T00:00:07.030Z,13.87
2023-04-17T00:02:39.788Z,14.87
2023-04-17T00:05:10.489Z,15.37
2023-04-17T00:07:39.223Z,14.67
2023-04-17T00:10:09.277Z,16.40
2023-04-17T00:12:37.951Z,12.03
2023-04-17T00:15:08.596Z,13.43
2023-04-17T00:17:36.604Z,13.53
2023-04-17T00:20:07.914Z,14.63
2023-04-17T00:22:37.348Z,13.33
2023-04-17T00:25:05.892Z,15.67
2023-04-17T00:27:33.909Z,13.03
2023-04-17T00:30:01.848Z,14.93
2023-04-17T00:32:30.214Z,13.47
2023-04-17T00:34:58.196Z,14.70
2023-04-17T00:37:26.144Z,13.50
2023-04-17T00:39:55.478Z,13.97
2023-04-17T00:42:23.476Z,13.80
2023-04-17T00:44:51.393Z,12.97
2023-04-17T00:47:22.287Z,14.23
2023-04-17T00:49:51.072Z,14.97
2023-04-17T00:52:28.775Z,14.20
2023-04-17T00:54:59.903Z,14.63
2023-04-17T00:57:28.156Z,14.77
2023-04-17T00:59:58.069Z,13.80
2023-04-17T01:02:27.044Z,13.93
2023-04-17T01:04:55.542Z,13.53
2023-04-17T01:07:23.854Z,13.80
2023-04-17T01:09:52.041Z,13.43
2023-04-17T01:12:22.870Z,13.33
2023-04-17T01:14:51.820Z,15.10
2023-04-17T01:17:20.538Z,15.23
2023-04-17T01:19:49.563Z,15.23
2023-04-17T01:22:17.703Z,14.47
2023-04-17T01:24:47.072Z,14.60
2023-04-17T01:27:15.657Z,15.47
2023-04-17T01:29:46.065Z,14.97
2023-04-17T01:32:14.062Z,13.70
2023-04-17T01:34:42.414Z,12.93
2023-04-17T01:37:10.451Z,14.10
2023-04-17T01:39:38.439Z,14.23
2023-04-17T01:42:07.997Z,15.40
2023-04-17T01:44:37.422Z,15.43
2023-04-17T01:47:05.640Z,15.27
2023-04-17T01:49:33.864Z,13.50
2023-04-17T01:52:01.860Z,15.10
2023-04-17T01:54:29.903Z,15.77
2023-04-17T01:56:58.002Z,14.07
2023-04-17T01:59:27.416Z,15.53
2023-04-17T02:01:56.547Z,14.50
2023-04-17T02:04:24.689Z,14.23
2023-04-17T02:06:52.825Z,14.70
2023-04-17T02:09:20.858Z,13.87
2023-04-17T02:11:48.824Z,16.00
2023-04-17T02:14:18.930Z,16.57
2023-04-17T02:16:48.328Z,16.17
2023-04-17T02:19:16.313Z,15.83
2023-04-17T02:21:44.306Z,15.77
2023-04-17T02:24:12.256Z,15.13
2023-04-17T02:26:40.591Z,15.67
2023-04-17T02:29:08.635Z,14.07
2023-04-17T02:31:37.513Z,15.87
2023-04-17T02:34:06.873Z,15.17
2023-04-17T02:36:34.911Z,15.53
2023-04-17T02:39:03.155Z,14.53
2023-04-17T02:41:31.160Z,17.30
2023-04-17T02:44:01.173Z,15.50
2023-04-17T02:46:29.326Z,17.00
2023-04-17T02:49:00.292Z,14.77
2023-04-17T02:51:29.619Z,15.50
2023-04-17T02:53:57.562Z,14.67
2023-04-17T02:56:25.573Z,14.20
2023-04-17T02:58:53.569Z,18.27
2023-04-17T03:01:22.160Z,15.13
2023-04-17T03:03:52.525Z,16.80
2023-04-17T03:06:21.573Z,16.23
2023-04-17T03:08:51.495Z,17.93
2023-04-17T03:11:19.842Z,16.57
2023-04-17T03:13:47.836Z,15.70
2023-04-17T03:16:15.951Z,17.73
2023-04-17T03:18:46.595Z,17.80
2023-04-17T03:21:14.560Z,17.13
2023-04-17T03:23:43.378Z,16.50
2023-04-17T03:26:12.859Z,18.33
2023-04-17T03:28:40.895Z,17.30
2023-04-17T03:31:08.970Z,17.90
2023-04-17T03:33:37.834Z,17.30
2023-04-17T03:36:07.004Z,19.50
2023-04-17T03:38:36.861Z,16.97
2023-04-17T03:41:06.900Z,17.60
2023-04-17T03:43:36.213Z,18.80
2023-04-17T03:46:04.243Z,18.10
2023-04-17T03:48:32.652Z,16.90
2023-04-17T03:51:01.019Z,18.17
2023-04-17T03:53:30.922Z,17.77
2023-04-17T03:56:01.831Z,20.23
2023-04-17T03:58:35.970Z,16.67
2023-04-17T04:01:04.803Z,17.10
2023-04-17T04:03:37.632Z,16.97
2023-04-17T04:06:07.278Z,17.73
2023-04-17T04:08:35.689Z,18.03
2023-04-17T04:11:04.132Z,18.67
2023-04-17T04:13:37.916Z,18.73
2023-04-17T04:16:08.294Z,20.30
2023-04-17T04:18:39.383Z,19.50
2023-04-17T04:21:07.823Z,18.80
2023-04-17T04:23:41.231Z,19.77
2023-04-17T04:26:11.713Z,17.97
2023-04-17T04:28:47.340Z,19.63
2023-04-17T04:31:29.627Z,18.77
2023-04-17T04:34:01.184Z,19.40
2023-04-17T04:36:30.235Z,21.07
2023-04-17T04:39:11.701Z,21.07
2023-04-17T04:41:45.814Z,20.37
2023-04-17T04:44:16.164Z,20.47
2023-04-17T04:46:45.778Z,19.47
2023-04-17T04:49:14.036Z,21.37
2023-04-17T04:51:42.115Z,17.83
2023-04-17T04:54:10.624Z,19.30
2023-04-17T04:56:46.772Z,18.60
2023-04-17T04:59:17.963Z,21.20
2023-04-17T05:01:52.327Z,22.20
2023-04-17T05:04:23.153Z,21.87
2023-04-17T05:06:58.008Z,22.30
2023-04-17T05:09:26.416Z,19.23
2023-04-17T05:11:57.606Z,21.53
2023-04-17T05:14:27.094Z,21.47
2023-04-17T05:16:55.823Z,21.67
2023-04-17T05:19:24.564Z,22.37
2023-04-17T05:21:57.537Z,22.63
2023-04-17T05:24:25.794Z,23.27
2023-04-17T05:26:54.281Z,23.53
2023-04-17T05:29:22.267Z,23.50
2023-04-17T05:31:51.982Z,22.10
2023-04-17T05:34:35.245Z,22.20
2023-04-17T05:37:04.949Z,21.43
2023-04-17T05:39:32.943Z,22.17
2023-04-17T05:42:02.526Z,23.07
2023-04-17T05:44:31.123Z,20.67
2023-04-17T05:47:00.648Z,21.77
2023-04-17T05:49:28.576Z,23.07
2023-04-17T05:51:56.592Z,21.43
2023-04-17T05:54:24.709Z,20.60
2023-04-17T05:56:53.459Z,23.10
2023-04-17T05:59:22.342Z,21.73
2023-04-17T06:01:50.936Z,23.10
2023-04-17T06:04:23.629Z,21.50
2023-04-17T06:06:52.635Z,20.83
2023-04-17T06:09:22.729Z,23.63
2023-04-17T06:11:51.932Z,20.97
2023-04-17T06:14:20.168Z,21.40
2023-04-17T06:16:48.788Z,21.30
2023-04-17T06:19:17.978Z,21.20
2023-04-17T06:21:47.677Z,22.20
2023-04-17T06:24:15.840Z,22.73
2023-04-17T06:26:47.967Z,21.20
2023-04-17T06:29:16.056Z,22.37
2023-04-17T06:31:45.248Z,22.00
2023-04-17T06:34:13.861Z,21.10
2023-04-17T06:36:46.948Z,21.07
2023-04-17T06:39:16.939Z,20.40
2023-04-17T06:41:45.475Z,20.70
2023-04-17T06:44:14.200Z,23.10
2023-04-17T06:46:47.237Z,20.20
2023-04-17T06:49:15.432Z,20.40
2023-04-17T06:51:45.903Z,18.00
2023-04-17T06:54:15.371Z,20.27
2023-04-17T06:56:43.345Z,22.70
2023-04-17T06:59:11.614Z,19.93
2023-04-17T07:01:40.336Z,21.23
2023-04-17T07:04:09.110Z,19.80
2023-04-17T07:06:37.156Z,21.30
2023-04-17T07:09:05.491Z,20.90
2023-04-17T07:11:34.907Z,20.60
2023-04-17T07:14:02.847Z,19.27
2023-04-17T07:16:30.842Z,19.37
2023-04-17T07:18:58.830Z,20.70
2023-04-17T07:21:27.698Z,21.23
2023-04-17T07:23:55.695Z,19.57
2023-04-17T07:26:23.737Z,22.13
2023-04-17T07:28:53.112Z,21.83
2023-04-17T07:31:22.061Z,21.53
2023-04-17T07:33:50.556Z,20.27
2023-04-17T07:36:18.563Z,20.97
2023-04-17T07:38:46.506Z,22.43
2023-04-17T07:41:14.477Z,20.30
2023-04-17T07:43:42.444Z,23.33
2023-04-17T07:46:11.853Z,20.60
2023-04-17T07:48:41.032Z,20.20
2023-04-17T07:51:09.098Z,20.50
2023-04-17T07:53:38.536Z,20.37
2023-04-17T07:56:07.003Z,22.83
2023-04-17T07:58:36.294Z,20.70
2023-04-17T08:01:05.687Z,22.47
2023-04-17T08:03:35.236Z,20.70
2023-04-17T08:06:03.454Z,22.73
2023-04-17T08:08:31.444Z,21.50
2023-04-17T08:10:59.428Z,22.90
2023-04-17T08:13:27.466Z,24.10
2023-04-17T08:15:55.436Z,22.83
2023-04-17T08:18:23.650Z,25.33
2023-04-17T08:20:53.768Z,24.70
2023-04-17T08:23:21.730Z,22.73
2023-04-17T08:25:49.891Z,22.10
2023-04-17T08:28:18.288Z,23.43
2023-04-17T08:30:46.392Z,22.17
2023-04-17T08:33:16.873Z,21.57
2023-04-17T08:35:45.300Z,22.60
2023-04-17T08:38:15.150Z,22.53
2023-04-17T08:40:46.572Z,22.87
2023-04-17T08:43:16.445Z,23.17
2023-04-17T08:45:52.848Z,24.47
2023-04-17T08:48:21.848Z,23.37
2023-04-17T08:50:51.900Z,25.07
2023-04-17T08:53:21.942Z,23.73
2023-04-17T08:55:50.209Z,23.90
2023-04-17T08:58:18.238Z,23.93
2023-04-17T09:00:46.774Z,21.90
2023-04-17T09:03:15.783Z,20.33
2023-04-17T09:05:46.050Z,22.23
2023-04-17T09:08:15.682Z,22.63
2023-04-17T09:10:46.750Z,23.07
2023-04-17T09:13:16.127Z,19.67
2023-04-17T09:15:45.233Z,20.53
2023-04-17T09:18:26.497Z,20.00
2023-04-17T09:20:57.494Z,17.87
2023-04-17T09:23:25.980Z,19.03
2023-04-17T09:26:10.856Z,18.87
2023-04-17T09:28:40.271Z,20.67
2023-04-17T09:31:25.516Z,19.37
2023-04-17T09:33:58.609Z,19.33
2023-04-17T09:36:27.786Z,18.27
2023-04-17T09:38:56.042Z,19.10
2023-04-17T09:41:27.159Z,18.30
2023-04-17T09:43:56.116Z,20.60
2023-04-17T09:46:38.991Z,18.70
2023-04-17T09:49:11.952Z,20.03
2023-04-17T09:51:40.840Z,20.07
2023-04-17T09:54:12.348Z,19.03
2023-04-17T09:56:42.324Z,19.57
2023-04-17T09:59:11.060Z,16.70
2023-04-17T10:01:40.844Z,17.67
2023-04-17T10:04:09.236Z,16.23
2023-04-17T10:06:37.621Z,16.33
2023-04-17T10:09:05.906Z,14.97
2023-04-17T10:11:37.736Z,14.33
2023-04-17T10:14:11.952Z,13.77
2023-04-17T10:16:42.598Z,15.53
2023-04-17T10:19:31.075Z,15.47
2023-04-17T10:22:31.686Z,12.97
2023-04-17T10:25:20.449Z,15.07
2023-04-17T10:27:59.327Z,14.40
2023-04-17T10:30:52.126Z,13.13
2023-04-17T10:33:22.646Z,12.77
2023-04-17T10:35:50.749Z,13.27
2023-04-17T10:38:32.549Z,12.60
2023-04-17T10:41:04.022Z,12.87
2023-04-17T10:43:32.869Z,11.43
2023-04-17T10:46:07.158Z,12.87
2023-04-17T10:48:38.028Z,11.90
2023-04-17T10:51:41.496Z,13.00
2023-04-17T10:54:13.523Z,12.93
2023-04-17T10:56:43.133Z,11.13
2023-04-17T10:59:12.466Z,10.40
2023-04-17T11:02:00.633Z,11.10
2023-04-17T11:04:31.469Z,11.23
2023-04-17T11:06:59.832Z,10.77
2023-04-17T11:09:31.229Z,10.33
2023-04-17T11:12:02.720Z,11.13
2023-04-17T11:14:32.255Z,11.43
2023-04-17T11:17:02.389Z,9.83
2023-04-17T11:19:30.779Z,9.70
2023-04-17T11:22:01.261Z,8.43
2023-04-17T11:24:31.102Z,7.97
2023-04-17T11:27:01.013Z,8.70
2023-04-17T11:29:29.225Z,8.13
2023-04-17T11:31:58.689Z,8.10
2023-04-17T11:34:28.147Z,9.70
2023-04-17T11:36:57.454Z,7.80
2023-04-17T11:39:27.731Z,9.23
2023-04-17T11:41:57.010Z,8.93
2023-04-17T11:44:25.896Z,8.00
2023-04-17T11:46:55.171Z,7.70
2023-04-17T11:49:28.193Z,7.17
2023-04-17T11:52:00.265Z,7.30
2023-04-17T11:54:28.937Z,7.43
2023-04-17T11:57:02.215Z,8.00
2023-04-17T11:59:34.099Z,8.10
2023-04-17T12:02:02.385Z,7.97
2023-04-17T12:04:34.713Z,7.80
2023-04-17T12:07:04.202Z,7.60
2023-04-17T12:09:34.442Z,7.20
2023-04-17T12:12:05.012Z,7.70
2023-04-17T12:14:33.151Z,6.97
2023-04-17T12:17:01.167Z,6.90
2023-04-17T12:19:29.617Z,6.87
2023-04-17T12:22:00.190Z,5.80
2023-04-17T12:24:28.377Z,6.07
2023-04-17T12:26:58.495Z,6.60
2023-04-17T12:29:40.511Z,5.53
2023-04-17T12:32:11.699Z,5.53
2023-04-17T12:34:40.424Z,5.50
2023-04-17T12:37:09.973Z,5.53
2023-04-17T12:39:38.011Z,5.97
2023-04-17T12:42:06.077Z,4.77
2023-04-17T12:44:34.035Z,5.43
2023-04-17T12:47:02.017Z,5.67
2023-04-17T12:49:30.030Z,6.00
2023-04-17T12:51:58.628Z,5.67
2023-04-17T12:54:29.200Z,5.67
2023-04-17T12:56:57.701Z,5.57
2023-04-17T12:59:25.788Z,4.40
2023-04-17T13:01:53.945Z,5.33
2023-04-17T13:04:23.763Z,4.97
2023-04-17T13:06:52.075Z,3.70
2023-04-17T13:09:20.013Z,3.87
2023-04-17T13:11:49.419Z,4.90
2023-04-17T13:14:17.412Z,4.67
2023-04-17T13:16:45.681Z,5.10
2023-04-17T13:19:13.848Z,5.20
2023-04-17T13:21:42.103Z,4.77
2023-04-17T13:24:14.408Z,5.13
2023-04-17T13:26:42.697Z,4.90
2023-04-17T13:29:12.309Z,4.80
2023-04-17T13:31:40.601Z,5.07
2023-04-17T13:34:08.717Z,4.40
2023-04-17T13:36:36.683Z,4.53
2023-04-17T13:39:05.305Z,4.17
2023-04-17T13:41:33.279Z,4.47
2023-04-17T13:44:01.236Z,4.90
2023-04-17T13:46:31.788Z,4.97
2023-04-17T13:48:59.870Z,5.60
2023-04-17T13:51:28.105Z,4.93
2023-04-17T13:53:58.429Z,4.30
2023-04-17T13:56:27.030Z,4.60
2023-04-17T13:58:55.403Z,5.03
2023-04-17T14:01:23.371Z,5.20
2023-04-17T14:03:52.836Z,5.07
2023-04-17T14:06:21.161Z,4.43
2023-04-17T14:08:49.296Z,5.20
2023-04-17T14:11:19.174Z,4.70
2023-04-17T14:13:47.152Z,4.60
2023-04-17T14:16:15.248Z,4.83
2023-04-17T14:18:43.283Z,4.50
2023-04-17T14:21:12.947Z,4.23
2023-04-17T14:23:41.265Z,4.63
2023-04-17T14:26:09.259Z,5.00
2023-04-17T14:28:37.218Z,5.40
2023-04-17T14:31:05.488Z,5.87
2023-04-17T14:33:33.608Z,5.40
2023-04-17T14:36:02.074Z,5.37
2023-04-17T14:38:32.366Z,4.87
2023-04-17T14:41:00.384Z,4.90
2023-04-17T14:43:28.391Z,5.20
2023-04-17T14:45:56.783Z,4.47
2023-04-17T14:48:24.760Z,4.80
2023-04-17T14:50:52.758Z,5.40
2023-04-17T14:53:21.604Z,5.57
2023-04-17T14:55:51.596Z,5.43
2023-04-17T14:58:19.807Z,4.90
2023-04-17T15:00:47.835Z,4.53
2023-04-17T15:03:15.916Z,4.87
2023-04-17T15:05:45.462Z,5.43
2023-04-17T15:08:13.419Z,5.33
2023-04-17T15:10:50.740Z,5.17
2023-04-17T15:13:20.979Z,4.93
2023-04-17T15:15:49.108Z,5.23
2023-04-17T15:18:17.126Z,5.50
2023-04-17T15:20:46.224Z,4.87
2023-04-17T15:23:15.415Z,4.63
2023-04-17T15:25:43.398Z,4.43
2023-04-17T15:28:12.339Z,5.03
2023-04-17T15:30:41.659Z,4.60
2023-04-17T15:33:10.430Z,4.43
2023-04-17T15:35:38.654Z,3.97
2023-04-17T15:38:06.888Z,3.93
2023-04-17T15:40:35.108Z,4.17
2023-04-17T15:43:03.472Z,3.50
2023-04-17T15:45:31.918Z,4.27
2023-04-17T15:48:02.015Z,4.40
2023-04-17T15:50:30.239Z,4.53
2023-04-17T15:52:58.245Z,4.20
2023-04-17T15:55:26.222Z,5.13
2023-04-17T15:57:54.272Z,5.17
2023-04-17T16:00:22.623Z,4.53
2023-04-17T16:02:51.745Z,5.13
2023-04-17T16:05:21.797Z,5.10
2023-04-17T16:07:49.717Z,4.80
2023-04-17T16:10:18.915Z,4.97
2023-04-17T16:12:47.375Z,5.60
2023-04-17T16:15:17.019Z,5.00
2023-04-17T16:17:45.419Z,5.47
2023-04-17T16:20:14.318Z,4.83
2023-04-17T16:22:43.651Z,4.90
2023-04-17T16:25:12.507Z,5.17
2023-04-17T16:27:40.958Z,4.37
2023-04-17T16:30:10.616Z,4.63
2023-04-17T16:32:38.604Z,4.60
2023-04-17T16:35:07.452Z,5.57
2023-04-17T16:37:35.501Z,4.37
2023-04-17T16:40:05.391Z,4.40
2023-04-17T16:42:33.623Z,4.60
2023-04-17T16:45:01.941Z,4.87
2023-04-17T16:47:31.420Z,4.30
2023-04-17T16:49:59.678Z,4.90
2023-04-17T16:52:27.723Z,4.30
2023-04-17T16:54:55.716Z,5.13
2023-04-17T16:57:25.024Z,4.80
2023-04-17T16:59:53.033Z,4.10
2023-04-17T17:02:21.055Z,5.00
2023-04-17T17:04:49.079Z,4.87
2023-04-17T17:07:17.061Z,5.40
2023-04-17T17:09:45.016Z,5.73
2023-04-17T17:12:12.985Z,4.87
2023-04-17T17:14:42.296Z,5.10
2023-04-17T17:17:10.283Z,3.90
2023-04-17T17:19:42.157Z,5.10
2023-04-17T17:22:10.967Z,4.57
2023-04-17T17:24:39.724Z,4.90
2023-04-17T17:27:07.730Z,4.30
2023-04-17T17:29:35.692Z,4.43
2023-04-17T17:32:05.493Z,4.50
2023-04-17T17:34:33.457Z,4.80
2023-04-17T17:37:01.424Z,4.60
2023-04-17T17:39:29.481Z,4.93
2023-04-17T17:41:57.718Z,4.93
2023-04-17T17:44:25.938Z,5.63
2023-04-17T17:46:56.720Z,5.47
2023-04-17T17:49:26.052Z,4.67
2023-04-17T17:51:54.030Z,4.70
2023-04-17T17:54:22.663Z,5.90
2023-04-17T17:56:50.662Z,5.00
2023-04-17T17:59:18.746Z,5.53
2023-04-17T18:01:46.662Z,5.07
2023-04-17T18:04:15.048Z,5.10
2023-04-17T18:06:44.925Z,5.00
2023-04-17T18:09:12.924Z,6.03
2023-04-17T18:11:41.079Z,5.37
2023-04-17T18:14:09.068Z,5.40
2023-04-17T18:16:37.554Z,5.20
2023-04-17T18:19:05.587Z,5.40
2023-04-17T18:21:33.796Z,5.50
2023-04-17T18:24:03.107Z,5.03
2023-04-17T18:26:31.077Z,6.30
2023-04-17T18:28:59.045Z,5.53
2023-04-17T18:31:28.245Z,5.77
2023-04-17T18:33:56.297Z,5.53
2023-04-17T18:36:24.309Z,5.87
2023-04-17T18:38:52.290Z,5.60
2023-04-17T18:41:21.642Z,5.40
2023-04-17T18:43:49.741Z,5.20
2023-04-17T18:46:18.118Z,5.00
2023-04-17T18:48:46.201Z,4.93
2023-04-17T18:51:15.538Z,5.70
2023-04-17T18:53:43.604Z,5.27
2023-04-17T18:56:13.683Z,5.53
2023-04-17T18:58:43.087Z,5.20
2023-04-17T19:01:11.210Z,6.00
2023-04-17T19:03:39.496Z,4.83
2023-04-17T19:06:07.706Z,4.53
2023-04-17T19:08:35.914Z,5.73
2023-04-17T19:11:04.006Z,4.80
2023-04-17T19:13:32.013Z,6.23
2023-04-17T19:16:01.404Z,5.47
2023-04-17T19:18:29.499Z,5.17
2023-04-17T19:20:57.468Z,5.73
2023-04-17T19:23:25.489Z,5.50
2023-04-17T19:25:54.754Z,5.40
2023-04-17T19:28:23.057Z,5.60
2023-04-17T19:30:51.027Z,5.30
2023-04-17T19:33:20.403Z,5.23
2023-04-17T19:35:48.376Z,5.80
2023-04-17T19:38:17.257Z,5.47
2023-04-17T19:40:48.183Z,6.23
2023-04-17T19:43:16.147Z,6.40
2023-04-17T19:45:44.331Z,5.70
2023-04-17T19:48:12.257Z,5.93
2023-04-17T19:50:41.539Z,5.40
2023-04-17T19:53:09.557Z,5.87
2023-04-17T19:55:37.541Z,6.33
2023-04-17T19:58:05.665Z,5.90
2023-04-17T20:00:33.667Z,6.63
2023-04-17T20:03:01.813Z,5.70
2023-04-17T20:05:30.409Z,6.43
2023-04-17T20:07:59.670Z,6.50
2023-04-17T20:10:27.792Z,7.27
2023-04-17T20:12:55.738Z,6.20
2023-04-17T20:15:23.673Z,6.10
2023-04-17T20:17:52.040Z,5.60
2023-04-17T20:20:20.077Z,7.10
2023-04-17T20:22:48.275Z,7.00
2023-04-17T20:25:20.880Z,7.73
2023-04-17T20:27:48.842Z,7.50
2023-04-17T20:30:16.834Z,5.80
2023-04-17T20:32:45.949Z,6.50
2023-04-17T20:35:14.373Z,6.97
2023-04-17T20:37:44.475Z,6.53
2023-04-17T20:40:13.982Z,6.73
2023-04-17T20:42:44.298Z,6.30
2023-04-17T20:45:12.813Z,6.70
2023-04-17T20:47:52.827Z,6.60
2023-04-17T20:50:24.701Z,7.10
2023-04-17T20:52:52.973Z,7.90
2023-04-17T20:55:21.179Z,7.47
2023-04-17T20:57:50.668Z,6.90
2023-04-17T21:00:19.288Z,7.00
2023-04-17T21:02:47.309Z,7.77
2023-04-17T21:05:15.274Z,7.90
2023-04-17T21:07:43.166Z,7.50
2023-04-17T21:10:11.257Z,7.50
2023-04-17T21:12:39.160Z,7.63
2023-04-17T21:15:10.074Z,7.83
2023-04-17T21:17:38.103Z,7.50
2023-04-17T21:20:06.714Z,7.47
2023-04-17T21:22:36.732Z,7.50
2023-04-17T21:25:05.836Z,6.83
2023-04-17T21:27:33.782Z,7.30
2023-04-17T21:30:01.770Z,7.03
2023-04-17T21:32:31.097Z,8.13
2023-04-17T21:34:59.312Z,7.57
2023-04-17T21:37:27.245Z,8.03
2023-04-17T21:39:55.613Z,6.63
2023-04-17T21:42:24.295Z,7.23
2023-04-17T21:44:52.250Z,7.80
2023-04-17T21:47:20.481Z,7.23
2023-04-17T21:49:50.138Z,7.20
2023-04-17T21:52:18.290Z,8.03
2023-04-17T21:54:46.277Z,7.70
2023-04-17T21:57:14.207Z,7.60
2023-04-17T21:59:42.154Z,7.60
2023-04-17T22:02:10.179Z,7.67
2023-04-17T22:04:38.228Z,7.57
2023-04-17T22:07:08.528Z,6.77
2023-04-17T22:09:36.500Z,6.40
2023-04-17T22:12:12.320Z,7.10
2023-04-17T22:14:40.521Z,7.50
2023-04-17T22:17:08.508Z,8.37
2023-04-17T22:19:36.471Z,6.60
2023-04-17T22:22:04.420Z,7.20
2023-04-17T22:24:33.834Z,8.10
2023-04-17T22:27:01.867Z,7.10
2023-04-17T22:29:29.839Z,6.40
2023-04-17T22:31:57.763Z,6.73
2023-04-17T22:34:25.686Z,7.90
2023-04-17T22:36:53.635Z,7.30
2023-04-17T22:39:21.591Z,7.50
2023-04-17T22:41:51.335Z,7.40
2023-04-17T22:44:19.269Z,7.93
2023-04-17T22:46:47.215Z,7.70
2023-04-17T22:49:15.447Z,7.87
2023-04-17T22:51:44.439Z,7.57
2023-04-17T22:54:22.173Z,8.37
2023-04-17T22:56:52.378Z,7.77
2023-04-17T22:59:20.311Z,6.67
2023-04-17T23:01:48.297Z,6.97
2023-04-17T23:04:16.604Z,7.13
2023-04-17T23:06:44.610Z,5.87
2023-04-17T23:09:12.692Z,6.63
2023-04-17T23:11:40.810Z,6.37
2023-04-17T23:14:11.239Z,6.73
2023-04-17T23:16:39.438Z,5.80
2023-04-17T23:19:07.530Z,6.20
2023-04-17T23:21:35.554Z,6.00
2023-04-17T23:24:03.606Z,6.50
2023-04-17T23:26:31.618Z,6.60
2023-04-17T23:28:59.575Z,5.70
2023-04-17T23:31:29.017Z,6.43
2023-04-17T23:33:56.985Z,6.83
2023-04-17T23:36:25.012Z,7.13
2023-04-17T23:38:53.770Z,5.20
2023-04-17T23:41:21.746Z,6.20
2023-04-17T23:43:51.278Z,6.87
2023-04-17T23:46:19.500Z,5.33
2023-04-17T23:48:48.843Z,6.23
2023-04-17T23:51:16.848Z,5.37
2023-04-17T23:53:45.256Z,5.70
2023-04-17T23:56:13.247Z,4.77
2023-04-17T23:58:41.240Z,5.40
